^^
Grace C. Lehan Memorial Weather Station Historical Data
Daily Summary for November 10, 2021 Units:  English    Metric   Both
Daily Weekly Monthly Yearly
  High: Low: Average:
Temperature: 62.7 °F 40.7 °F 55 °F
Dew Point: 50.8 °F 27.3 °F 40.7 °F
Humidity: 84% 30% 61%
Wind Speed: 11.6mph 0mph 1.8mph
Wind Gust: 26mph - -
Wind- - NW
Pressure: 30.25 in 29.92 in -
Precipitation: 0.00 in    
 
 
Tabular Data for November 10, 2021
Time Temperature Dew Point Pressure Wind Wind Speed Wind Gust Humidity Rainfall Rate (Hourly) solar
00:04 56 °F 47.8 °F 29.98 in Calm   6 mph 74% 0.00 in 0 W/m2
00:09 56 °F 47.8 °F 29.98 in West 0.4 mph 3 mph 74% 0.00 in 0 W/m2
00:14 55.9 °F 47.7 °F 29.97 in Calm   3 mph 74% 0.00 in 0 W/m2
00:19 55.9 °F 47.8 °F 29.97 in West 0.1 mph 3 mph 74.3% 0.00 in 0 W/m2
00:24 55.8 °F 48 °F 29.97 in West 0.2 mph 3 mph 75% 0.00 in 0 W/m2
00:29 55.7 °F 47.9 °F 29.97 in Calm   3 mph 75% 0.00 in 0 W/m2
00:34 55.7 °F 47.9 °F 29.97 in West 0.6 mph 4 mph 75% 0.00 in 0 W/m2
00:39 55.7 °F 47.9 °F 29.97 in West 0.1 mph 4 mph 75% 0.00 in 0 W/m2
00:44 55.7 °F 47.9 °F 29.97 in West 0.4 mph 4 mph 75% 0.00 in 0 W/m2
00:49 55.8 °F 48 °F 29.97 in West 1.1 mph 5 mph 75% 0.00 in 0 W/m2
00:54 55.8 °F 48.1 °F 29.97 in West 0.3 mph 5 mph 75% 0.00 in 0 W/m2
00:59 55.9 °F 48.1 °F 29.97 in West 0.5 mph 5 mph 75% 0.00 in 0 W/m2
01:03 56 °F 48.2 °F 29.97 in West 0.6 mph 5 mph 75% 0.00 in 0 W/m2
01:30 56.3 °F 48.1 °F 29.96 in Calm   6 mph 74% 0.00 in 0 W/m2
02:00 56.1 °F 48.3 °F 29.95 in Calm   2 mph 75% 0.00 in 0 W/m2
02:30 55.2 °F 48.1 °F 29.95 in Calm     77% 0.00 in 0 W/m2
03:00 54.8 °F 48.1 °F 29.94 in Calm     78% 0.00 in 0 W/m2
03:30 54.3 °F 47.9 °F 29.93 in Calm     79% 0.00 in 0 W/m2
04:04 53.3 °F 47.6 °F 29.93 in Calm     81% 0.00 in 0 W/m2
04:09 53.3 °F 47.8 °F 29.93 in Calm     81.5% 0.00 in 0 W/m2
04:14 53.2 °F 47.9 °F 29.93 in Calm     82% 0.00 in 0 W/m2
04:19 53.3 °F 47.9 °F 29.93 in Calm     82% 0.00 in 0 W/m2
04:24 53.2 °F 47.9 °F 29.93 in Calm     82% 0.00 in 0 W/m2
04:29 53.2 °F 47.8 °F 29.93 in Calm     82% 0.00 in 0 W/m2
04:34 53.1 °F 47.8 °F 29.93 in Calm     82% 0.00 in 0 W/m2
04:39 53 °F 47.7 °F 29.93 in Calm     82% 0.00 in 0 W/m2
04:44 52.9 °F 47.6 °F 29.93 in Calm     82% 0.00 in 0 W/m2
04:49 52.8 °F 47.7 °F 29.93 in Calm     82.7% 0.00 in 0 W/m2
04:54 52.8 °F 47.8 °F 29.93 in Calm     83% 0.00 in 0 W/m2
04:59 52.7 °F 47.7 °F 29.93 in Calm     83% 0.00 in 0 W/m2
05:04 52.6 °F 47.6 °F 29.93 in Calm     83% 0.00 in 0 W/m2
05:09 52.6 °F 47.6 °F 29.93 in Calm     83% 0.00 in 0 W/m2
05:14 52.6 °F 47.9 °F 29.93 in Calm     83.8% 0.00 in 0 W/m2
05:19 52.7 °F 47.7 °F 29.93 in Calm     83.2% 0.00 in 0 W/m2
05:24 52.7 °F 47.7 °F 29.93 in Calm     83% 0.00 in 0 W/m2
05:29 52.8 °F 47.8 °F 29.92 in Calm     83% 0.00 in 0 W/m2
05:34 52.9 °F 47.9 °F 29.92 in Calm     83% 0.00 in 0 W/m2
05:39 52.9 °F 47.9 °F 29.92 in Calm     83.1% 0.00 in 0 W/m2
05:44 52.9 °F 47.9 °F 29.92 in Calm     83% 0.00 in 0 W/m2
05:49 52.9 °F 47.9 °F 29.92 in Calm     83% 0.00 in 0 W/m2
05:54 52.9 °F 47.9 °F 29.92 in Calm     83% 0.00 in 0 W/m2
05:59 52.9 °F 47.9 °F 29.92 in Calm     83% 0.00 in 0 W/m2
06:04 52.8 °F 47.8 °F 29.92 in Calm     83% 0.00 in 0 W/m2
06:09 52.8 °F 47.8 °F 29.93 in Calm   1 mph 83% 0.00 in 0 W/m2
06:14 52.7 °F 47.7 °F 29.93 in Calm   1 mph 83% 0.00 in 0 W/m2
06:19 52.7 °F 47.7 °F 29.93 in Calm   1 mph 83% 0.00 in 0 W/m2
06:24 52.6 °F 47.6 °F 29.93 in Calm   1 mph 83% 0.00 in 0 W/m2
06:29 52.6 °F 47.6 °F 29.93 in Calm   1 mph 83% 0.00 in 0 W/m2
06:34 52.5 °F 47.5 °F 29.94 in Calm   1 mph 83% 0.00 in 0 W/m2
06:39 52.4 °F 47.4 °F 29.94 in Calm     83% 0.00 in 0 W/m2
06:44 52.3 °F 47.5 °F 29.94 in Calm     83.6% 0.00 in 0 W/m2
06:49 52.2 °F 47.5 °F 29.95 in Calm     84% 0.00 in 11 W/m2
06:54 52.2 °F 47.5 °F 29.95 in Calm     84% 0.00 in 18 W/m2
06:59 52.3 °F 47.6 °F 29.95 in Calm     84% 0.00 in 18 W/m2
07:04 52.3 °F 47.6 °F 29.95 in Calm     84% 0.00 in 14 W/m2
07:09 52.3 °F 47.7 °F 29.96 in Calm     84% 0.00 in 16 W/m2
07:14 52.4 °F 47.7 °F 29.96 in Calm     84% 0.00 in 25 W/m2
07:19 52.4 °F 47.7 °F 29.96 in Calm     84% 0.00 in 25 W/m2
07:24 52.5 °F 47.8 °F 29.96 in Calm     84% 0.00 in 16 W/m2
07:29 52.5 °F 47.8 °F 29.97 in Calm     84% 0.00 in 14 W/m2
07:34 52.6 °F 47.9 °F 29.97 in WNW 0.1 mph 2 mph 84% 0.00 in 16 W/m2
07:39 52.7 °F 48 °F 29.97 in Calm   2 mph 84% 0.00 in 16 W/m2
07:44 52.8 °F 48.1 °F 29.98 in Calm   2 mph 84% 0.00 in 30 W/m2
07:49 52.9 °F 48.2 °F 29.98 in WNW 0.1 mph 2 mph 84% 0.00 in 33 W/m2
07:54 53.1 °F 48.4 °F 29.98 in WNW 0.1 mph 3 mph 84% 0.00 in 32 W/m2
07:59 53.3 °F 48.3 °F 29.98 in Calm   3 mph 83.1% 0.00 in 86 W/m2
08:04 53.8 °F 48.7 °F 29.97 in Calm     82.8% 0.00 in 74 W/m2
08:09 54.1 °F 48.8 °F 29.97 in Calm     82% 0.00 in 74 W/m2
08:14 54.6 °F 49.2 °F 29.97 in Calm     82% 0.00 in 207 W/m2
08:19 55.1 °F 49.5 °F 29.97 in Calm   1 mph 81.4% 0.00 in 279 W/m2
08:24 56 °F 50.2 °F 29.97 in WNW 0.2 mph 2 mph 80.7% 0.00 in 299 W/m2
08:29 57.2 °F 50.6 °F 29.97 in WNW 1.3 mph 6 mph 78.8% 0.00 in 294 W/m2
08:34 58.3 °F 50.6 °F 29.98 in NW 1.6 mph 6 mph 75.6% 0.00 in 265 W/m2
08:39 59 °F 50.5 °F 29.98 in NW 1.8 mph 5 mph 73.3% 0.00 in 220 W/m2
08:44 59.1 °F 50.1 °F 29.98 in NW 0.2 mph 5 mph 72% 0.00 in 35 W/m2
08:49 59 °F 50 °F 29.98 in Calm   5 mph 72% 0.00 in 46 W/m2
08:54 58.9 °F 50 °F 29.98 in NW 0.1 mph 5 mph 72.4% 0.00 in 67 W/m2
08:59 58.7 °F 50.1 °F 29.98 in NW 0.2 mph 5 mph 73% 0.00 in 81 W/m2
09:04 58.5 °F 49.9 °F 29.98 in NW 0.5 mph 5 mph 73.2% 0.00 in 134 W/m2
09:09 58.3 °F 50.1 °F 29.98 in NW 0.5 mph 4 mph 74% 0.00 in 149 W/m2
09:14 58.2 °F 50.3 °F 29.98 in NW 1.5 mph 5 mph 75% 0.00 in 111 W/m2
09:19 58.2 °F 50.3 °F 29.98 in NNW 1.6 mph 5 mph 74.8% 0.00 in 118 W/m2
09:24 58.1 °F 50.2 °F 29.99 in NNW 1 mph 5 mph 74.9% 0.00 in 102 W/m2
09:29 58.1 °F 50.2 °F 29.99 in NNW 0.2 mph 5 mph 75% 0.00 in 120 W/m2
09:34 58.2 °F 50.4 °F 29.99 in NNW 0.5 mph 5 mph 75.2% 0.00 in 125 W/m2
09:39 58.2 °F 50.3 °F 29.99 in NNW 0.9 mph 4 mph 75% 0.00 in 86 W/m2
09:44 58.2 °F 50.3 °F 29.99 in WNW 3.3 mph 11 mph 75% 0.00 in 241 W/m2
09:49 58.4 °F 50.6 °F 29.99 in NW 2.9 mph 11 mph 75% 0.00 in 230 W/m2
09:54 58.8 °F 50.8 °F 29.99 in WNW 3.7 mph 14 mph 74.8% 0.00 in 206 W/m2
09:59 59.2 °F 50.7 °F 29.99 in NW 6.7 mph 14 mph 73.4% 0.00 in 169 W/m2
10:04 59.6 °F 50.3 °F 30.00 in NW 7.9 mph 19 mph 71.1% 0.00 in 343 W/m2
10:09 60.2 °F 50.2 °F 30.00 in NW 7.1 mph 19 mph 69.6% 0.00 in 480 W/m2
10:14 60.7 °F 50.5 °F 30.00 in NW 3.2 mph 19 mph 69% 0.00 in 564 W/m2
10:19 61.6 °F 50.7 °F 30.00 in NW 5.6 mph 19 mph 67.4% 0.00 in 563 W/m2
10:24 61.9 °F 50.1 °F 30.00 in NW 3.1 mph 19 mph 65% 0.00 in 262 W/m2
10:29 61.6 °F 49.9 °F 30.01 in NW 2.4 mph 19 mph 65.3% 0.00 in 561 W/m2
10:34 61.6 °F 50.1 °F 30.01 in NW 6.4 mph 19 mph 65.9% 0.00 in 582 W/m2
10:39 61.6 °F 49.8 °F 30.01 in NW 3.4 mph 16 mph 65% 0.00 in 526 W/m2
10:44 61.6 °F 49.9 °F 30.01 in WNW 1.7 mph 16 mph 65.3% 0.00 in 571 W/m2
10:49 61.9 °F 49.6 °F 30.00 in NNW 3.2 mph 16 mph 64% 0.00 in 494 W/m2
10:54 61.9 °F 49.2 °F 30.00 in NW 3.6 mph 16 mph 63% 0.00 in 353 W/m2
10:59 61.8 °F 49 °F 30.00 in NW 4.7 mph 18 mph 62.9% 0.00 in 299 W/m2
11:04 61.5 °F 48.8 °F 30.00 in NW 1.1 mph 18 mph 63% 0.00 in 350 W/m2
11:09 61.5 °F 49 °F 30.00 in NW 3.9 mph 16 mph 63.6% 0.00 in 350 W/m2
11:14 61.2 °F 48.3 °F 30.00 in NW 5.2 mph 18 mph 62.4% 0.00 in 137 W/m2
11:19 60.9 °F 48.5 °F 30.00 in WNW 2.8 mph 18 mph 63.6% 0.00 in 211 W/m2
11:24 61 °F 48.6 °F 30.00 in NW 3.6 mph 18 mph 63.6% 0.00 in 378 W/m2
11:29 61.2 °F 48.4 °F 30.00 in NW 6.3 mph 18 mph 62.9% 0.00 in 325 W/m2
11:34 61.2 °F 48.6 °F 30.00 in WNW 4.2 mph 18 mph 63.3% 0.00 in 316 W/m2
11:39 61.5 °F 48.5 °F 30.00 in WNW 4.6 mph 15 mph 62.2% 0.00 in 534 W/m2
11:44 62.1 °F 49 °F 30.00 in NW 5.9 mph 20 mph 62.3% 0.00 in 573 W/m2
11:49 62.6 °F 48.5 °F 30.00 in NW 8.4 mph 20 mph 60% 0.00 in 350 W/m2
11:54 62.7 °F 47.8 °F 30.00 in NW 11.5 mph 23 mph 58.2% 0.00 in 258 W/m2
11:59 62.2 °F 46.8 °F 30.00 in WNW 11.6 mph 26 mph 57% 0.00 in 113 W/m2
12:00 61.8 °F 46.4 °F 30.00 in NW 2 mph 26 mph 57% 0.00 in 77 W/m2
12:09 61.2 °F 45.8 °F 30.00 in WNW 9 mph 19 mph 57% 0.00 in 197 W/m2
12:14 61.1 °F 46.2 °F 30.00 in WNW 6.5 mph 19 mph 57.8% 0.00 in 359 W/m2
12:19 61.2 °F 46.3 °F 30.00 in WNW 5.1 mph 19 mph 58% 0.00 in 338 W/m2
12:24 61.3 °F 46.2 °F 30.00 in WNW 6.5 mph 19 mph 57.4% 0.00 in 176 W/m2
12:29 61.5 °F 46.7 °F 30.00 in WNW 2.8 mph 19 mph 58.3% 0.00 in 371 W/m2
12:34 61.7 °F 46.5 °F 30.00 in WNW 3.6 mph 19 mph 57.4% 0.00 in 517 W/m2
12:39 62 °F 46.9 °F 30.00 in NW 2.7 mph 13 mph 57.6% 0.00 in 290 W/m2
12:44 62.2 °F 46.9 °F 30.00 in WNW 6.9 mph 16 mph 57.2% 0.00 in 406 W/m2
12:49 62.1 °F 45.4 °F 30.00 in NW 7 mph 22 mph 54.2% 0.00 in 406 W/m2
12:54 61.9 °F 45.2 °F 30.00 in NW 7.1 mph 22 mph 54.4% 0.00 in 153 W/m2
12:59 61.7 °F 44.7 °F 30.00 in NW 4.1 mph 22 mph 53.6% 0.00 in 153 W/m2
13:04 61.6 °F 44.6 °F 30.00 in WNW 6.4 mph 22 mph 53.4% 0.00 in 329 W/m2
13:09 61.7 °F 44.5 °F 30.00 in NW 5 mph 17 mph 53.1% 0.00 in 149 W/m2
13:14 61.7 °F 44.4 °F 30.00 in WNW 4 mph 17 mph 53% 0.00 in 385 W/m2
13:19 61.8 °F 43.2 °F 30.00 in NW 5.4 mph 17 mph 50.4% 0.00 in 339 W/m2
13:24 61.9 °F 43 °F 30.00 in WNW 5.3 mph 17 mph 49.9% 0.00 in 494 W/m2
13:29 62 °F 41.8 °F 30.00 in NW 6.5 mph 17 mph 47.6% 0.00 in 313 W/m2
13:34 62 °F 41.5 °F 30.00 in NW 5.2 mph 17 mph 46.9% 0.00 in 318 W/m2
13:39 61.9 °F 40.7 °F 30.00 in NW 6.2 mph 16 mph 45.5% 0.00 in 318 W/m2
13:44 61.9 °F 40.9 °F 30.00 in NW 4.2 mph 16 mph 46% 0.00 in 332 W/m2
13:49 62 °F 41.2 °F 30.00 in NW 2.1 mph 16 mph 46.4% 0.00 in 401 W/m2
13:54 62.2 °F 41.3 °F 30.00 in WNW 6.3 mph 20 mph 46.2% 0.00 in 371 W/m2
13:59 62.1 °F 39.3 °F 30.00 in WNW 9.1 mph 20 mph 42.8% 0.00 in 323 W/m2
14:04 61.8 °F 39.2 °F 30.01 in WNW 10.3 mph 20 mph 43.3% 0.00 in 323 W/m2
14:09 61.4 °F 38.6 °F 30.01 in WNW 5.6 mph 18 mph 42.7% 0.00 in 202 W/m2
14:14 61.4 °F 39.2 °F 30.01 in WNW 5.9 mph 18 mph 43.8% 0.00 in 232 W/m2
14:19 61.4 °F 39 °F 30.01 in WNW 5.7 mph 18 mph 43.5% 0.00 in 179 W/m2
14:24 61.3 °F 39 °F 30.01 in WNW 5 mph 18 mph 43.7% 0.00 in 192 W/m2
14:29 61.3 °F 39.1 °F 30.01 in WNW 4.5 mph 18 mph 43.8% 0.00 in 111 W/m2
14:34 61.3 °F 38.6 °F 30.02 in NW 6 mph 18 mph 42.9% 0.00 in 32 W/m2
14:39 61.2 °F 38 °F 30.02 in NW 4.9 mph 15 mph 42.1% 0.00 in 30 W/m2
14:44 61.1 °F 38.4 °F 30.02 in NW 3.9 mph 16 mph 42.8% 0.00 in 28 W/m2
14:49 61 °F 38 °F 30.02 in NW 7.1 mph 16 mph 42.3% 0.00 in 28 W/m2
14:54 61 °F 36.9 °F 30.03 in NW 5.1 mph 16 mph 40.7% 0.00 in 26 W/m2
14:59 61.1 °F 36.8 °F 30.03 in NW 2.9 mph 16 mph 40.3% 0.00 in 26 W/m2
15:04 61 °F 37 °F 30.03 in WNW 0.8 mph 16 mph 40.6% 0.00 in 25 W/m2
15:09 61 °F 35.8 °F 30.03 in NW 3.7 mph 12 mph 38.9% 0.00 in 25 W/m2
15:14 60.9 °F 35.1 °F 30.03 in WNW 4.1 mph 14 mph 38% 0.00 in 23 W/m2
15:19 60.7 °F 35 °F 30.03 in WNW 5.6 mph 16 mph 38% 0.00 in 23 W/m2
15:24 60.6 °F 33.9 °F 30.04 in NW 5.1 mph 16 mph 36.6% 0.00 in 21 W/m2
15:29 60.5 °F 33.4 °F 30.04 in NW 6.2 mph 16 mph 36% 0.00 in 21 W/m2
15:34 60.4 °F 33.2 °F 30.04 in WNW 4.7 mph 16 mph 35.7% 0.00 in 19 W/m2
15:39 60.4 °F 33.3 °F 30.04 in WNW 5.4 mph 14 mph 36% 0.00 in 19 W/m2
15:44 60.3 °F 33.2 °F 30.05 in NW 2.3 mph 14 mph 36% 0.00 in 18 W/m2
15:49 60.1 °F 32.8 °F 30.05 in NW 0.9 mph 14 mph 35.6% 0.00 in 18 W/m2
15:54 60 °F 32.2 °F 30.05 in NW 0.8 mph 14 mph 35% 0.00 in 16 W/m2
15:59 59.7 °F 31.6 °F 30.06 in WNW 2.1 mph 14 mph 34.4% 0.00 in 12 W/m2
16:00 59.6 °F 31.2 °F 30.06 in WNW 3 mph 14 mph 34% 0.00 in 11 W/m2
16:09 59.1 °F 28.5 °F 30.06 in NW 7.6 mph 21 mph 31% 0.00 in 11 W/m2
16:14 58.8 °F 27.5 °F 30.06 in WNW 4.7 mph 21 mph 30% 0.00 in 9 W/m2
16:19 58.6 °F 27.3 °F 30.07 in WNW 3.2 mph 21 mph 30% 0.00 in 9 W/m2
16:24 58.3 °F 27.3 °F 30.07 in WNW 1.7 mph 21 mph 30.3% 0.00 in 7 W/m2
16:29 58.1 °F 27.5 °F 30.07 in NW 0.7 mph 21 mph 30.8% 0.00 in 5 W/m2
16:34 57.9 °F 27.8 °F 30.08 in NW 0.1 mph 21 mph 31.5% 0.00 in 0 W/m2
16:39 57.6 °F 27.8 °F 30.09 in NW 0.4 mph 2 mph 31.8% 0.00 in 0 W/m2
16:44 57.3 °F 27.7 °F 30.09 in NW 1 mph 6 mph 32% 0.00 in 0 W/m2
16:49 57 °F 28.1 °F 30.10 in NW 0.3 mph 6 mph 32.8% 0.00 in 0 W/m2
16:54 56.8 °F 28.6 °F 30.10 in NW 0.1 mph 6 mph 33.9% 0.00 in 0 W/m2
16:59 56.4 °F 28.9 °F 30.11 in NW 0.3 mph 6 mph 34.7% 0.00 in 0 W/m2
17:04 56.1 °F 28.9 °F 30.11 in WNW 1.1 mph 6 mph 35% 0.00 in 0 W/m2
17:09 55.8 °F 29.1 °F 30.11 in NW 1 mph 7 mph 35.9% 0.00 in 0 W/m2
17:14 55.5 °F 28.5 °F 30.11 in WNW 0.6 mph 7 mph 35.4% 0.00 in 0 W/m2
17:19 55.2 °F 28.8 °F 30.12 in WNW 0.4 mph 7 mph 36% 0.00 in 0 W/m2
17:24 55 °F 28.7 °F 30.12 in NW 1.3 mph 7 mph 36.2% 0.00 in 0 W/m2
17:29 54.8 °F 28.7 °F 30.13 in NW 1.4 mph 7 mph 36.4% 0.00 in 0 W/m2
17:34 54.6 °F 28.7 °F 30.13 in NW 0.3 mph 7 mph 36.7% 0.00 in 0 W/m2
17:39 54.5 °F 28.8 °F 30.14 in NW 0.1 mph 2 mph 37% 0.00 in 0 W/m2
17:44 54.3 °F 28.6 °F 30.14 in Calm   2 mph 37% 0.00 in 0 W/m2
17:49 54.1 °F 28.9 °F 30.14 in Calm   2 mph 37.7% 0.00 in 0 W/m2
17:54 53.8 °F 28.8 °F 30.14 in NW 0.1 mph 2 mph 38% 0.00 in 0 W/m2
17:59 53.5 °F 28.7 °F 30.14 in Calm   2 mph 38.3% 0.00 in 0 W/m2
18:04 53.1 °F 29.2 °F 30.14 in NW 0.1 mph 2 mph 39.6% 0.00 in 0 W/m2
18:09 52.7 °F 29.1 °F 30.14 in Calm   1 mph 40.1% 0.00 in 0 W/m2
18:14 52.4 °F 29.3 °F 30.14 in NW 0.3 mph 1 mph 40.8% 0.00 in 0 W/m2
18:19 52.1 °F 29.5 °F 30.14 in NW 0.2 mph 1 mph 41.5% 0.00 in 0 W/m2
18:24 51.9 °F 29.4 °F 30.14 in NW 0.4 mph 2 mph 41.8% 0.00 in 0 W/m2
18:29 51.7 °F 29.3 °F 30.14 in NW 0.4 mph 2 mph 42% 0.00 in 0 W/m2
18:34 51.5 °F 29.3 °F 30.15 in NW 0.4 mph 2 mph 42.2% 0.00 in 0 W/m2
18:39 51.2 °F 30.1 °F 30.15 in WNW 1.3 mph 7 mph 44% 0.00 in 0 W/m2
18:44 50.9 °F 30.4 °F 30.15 in West 0.9 mph 7 mph 45% 0.00 in 0 W/m2
18:49 50.6 °F 30.5 °F 30.15 in West 1.9 mph 8 mph 45.8% 0.00 in 0 W/m2
18:54 50.6 °F 30.1 °F 30.15 in West 2.5 mph 12 mph 45% 0.00 in 0 W/m2
18:59 50.8 °F 30.2 °F 30.15 in WNW 2.7 mph 12 mph 45% 0.00 in 0 W/m2
19:00 50.9 °F 30.3 °F 30.15 in WNW 2 mph 12 mph 45% 0.00 in 0 W/m2
19:30 51.4 °F 31.3 °F 30.17 in WNW 2 mph 15 mph 46% 0.00 in 0 W/m2
20:04 51.1 °F 31.1 °F 30.18 in WNW 0.2 mph 15 mph 46% 0.00 in 0 W/m2
20:09 51 °F 31 °F 30.18 in WNW 0.7 mph 5 mph 46% 0.00 in 0 W/m2
20:14 50.8 °F 31 °F 30.18 in NW 1.5 mph 6 mph 46.5% 0.00 in 0 W/m2
20:19 50.6 °F 30.7 °F 30.18 in NW 0.5 mph 6 mph 46.2% 0.00 in 0 W/m2
20:24 50.5 °F 31 °F 30.18 in NW 0.2 mph 6 mph 47% 0.00 in 0 W/m2
20:29 50.4 °F 30.9 °F 30.18 in NW 0.6 mph 6 mph 47% 0.00 in 0 W/m2
20:34 50.3 °F 31 °F 30.18 in NW 1.1 mph 6 mph 47.4% 0.00 in 0 W/m2
20:39 50.1 °F 31 °F 30.18 in WNW 0.7 mph 4 mph 47.6% 0.00 in 0 W/m2
20:44 49.9 °F 30.9 °F 30.18 in WNW 0.7 mph 4 mph 47.8% 0.00 in 0 W/m2
20:49 49.7 °F 30.8 °F 30.18 in West 0.1 mph 4 mph 48% 0.00 in 0 W/m2
20:54 49.6 °F 30.8 °F 30.18 in Calm   4 mph 48.2% 0.00 in 0 W/m2
20:59 49.4 °F 31.6 °F 30.18 in Calm   4 mph 49.9% 0.00 in 0 W/m2
21:04 49.1 °F 31.3 °F 30.18 in Calm   4 mph 50% 0.00 in 0 W/m2
21:09 48.8 °F 31 °F 30.19 in Calm     50% 0.00 in 0 W/m2
21:14 48.6 °F 30.8 °F 30.19 in WNW 0.1 mph 1 mph 50% 0.00 in 0 W/m2
21:19 48.5 °F 31 °F 30.19 in WNW 0.3 mph 3 mph 50.6% 0.00 in 0 W/m2
21:24 48.5 °F 31.6 °F 30.18 in NW 0.3 mph 4 mph 51.9% 0.00 in 0 W/m2
21:29 48.4 °F 31.2 °F 30.19 in Calm   4 mph 51.3% 0.00 in 0 W/m2
21:34 48.2 °F 31.4 °F 30.19 in Calm   4 mph 52% 0.00 in 0 W/m2
21:39 48.1 °F 31.3 °F 30.19 in Calm     52% 0.00 in 0 W/m2
21:44 47.9 °F 31.6 °F 30.20 in NW 0.2 mph 2 mph 52.9% 0.00 in 0 W/m2
21:49 47.8 °F 31.8 °F 30.20 in Calm   2 mph 53.7% 0.00 in 0 W/m2
21:54 47.6 °F 32.4 °F 30.20 in Calm   2 mph 55.5% 0.00 in 0 W/m2
21:59 47.2 °F 32.2 °F 30.20 in Calm   2 mph 55.7% 0.00 in 0 W/m2
22:04 46.9 °F 31.7 °F 30.20 in Calm   2 mph 55.4% 0.00 in 0 W/m2
22:09 46.6 °F 31.5 °F 30.20 in Calm     55.2% 0.00 in 0 W/m2
22:14 46.4 °F 31.9 °F 30.19 in Calm     56.9% 0.00 in 0 W/m2
22:19 46.2 °F 31.7 °F 30.19 in Calm     56.8% 0.00 in 0 W/m2
22:24 45.9 °F 31.5 °F 30.19 in Calm     57% 0.00 in 0 W/m2
22:29 45.6 °F 31.5 °F 30.20 in Calm     57.5% 0.00 in 0 W/m2
22:34 45.4 °F 32.6 °F 30.20 in Calm   1 mph 60.7% 0.00 in 0 W/m2
22:39 45 °F 32.4 °F 30.20 in Calm   1 mph 61% 0.00 in 0 W/m2
22:44 44.6 °F 32 °F 30.20 in Calm   1 mph 61% 0.00 in 0 W/m2
22:49 44.3 °F 31.9 °F 30.21 in NW 0.2 mph 2 mph 61.5% 0.00 in 0 W/m2
22:54 44 °F 31.8 °F 30.21 in Calm   2 mph 62% 0.00 in 0 W/m2
22:59 43.8 °F 31.9 °F 30.21 in Calm   2 mph 62.6% 0.00 in 0 W/m2
23:04 43.3 °F 32.3 °F 30.22 in Calm     65% 0.00 in 0 W/m2
23:09 43.1 °F 32.4 °F 30.23 in Calm   1 mph 65.6% 0.00 in 0 W/m2
23:14 42.5 °F 32.3 °F 30.23 in Calm   1 mph 66.8% 0.00 in 0 W/m2
23:19 42.1 °F 32.6 °F 30.23 in Calm   1 mph 68.8% 0.00 in 0 W/m2
23:24 41.8 °F 32.9 °F 30.23 in Calm   1 mph 70.6% 0.00 in 0 W/m2
23:29 41.5 °F 32.9 °F 30.24 in Calm   1 mph 71.2% 0.00 in 0 W/m2
23:34 41.2 °F 33 °F 30.23 in Calm   1 mph 72.5% 0.00 in 0 W/m2
23:39 41 °F 33 °F 30.24 in Calm     73% 0.00 in 0 W/m2
23:44 40.8 °F 33 °F 30.24 in Calm     73.5% 0.00 in 0 W/m2
23:49 40.7 °F 33.1 °F 30.24 in Calm     74% 0.00 in 0 W/m2
23:54 40.7 °F 32.8 °F 30.24 in Calm     73.3% 0.00 in 0 W/m2
23:59 40.7 °F 32.8 °F 30.25 in Calm     73.2% 0.00 in 0 W/m2
Hartford County Weather
Compliments of Weather Underground - 2 mb